Time;durP1;ratioP1;P1;durP2;ratioP2;P2;SDS_P1;SDS_P2;PMS_P1;PMS_P2;Temp;Humidity;BMP_temperature;BMP_pressure;BME280_temperature;BME280_humidity;BME280_pressure;Samples;Min_cycle;Max_cycle;Signal;HPM_P1;HPM_P2
2021/12/11 00:01:44;;;;;;;18.98;13.18;;;-1.10;99.90;;;;;;5076467;28;20103;-76
2021/12/11 00:04:14;;;;;;;16.90;11.85;;;-1.20;99.90;;;;;;5087276;28;20055;-76
2021/12/11 00:06:49;;;;;;;20.95;12.55;;;-1.20;99.90;;;;;;5073231;28;20032;-72
2021/12/11 00:09:30;;;;;;;18.38;13.10;;;-1.30;99.90;;;;;;5093313;28;20099;-77
2021/12/11 00:12:01;;;;;;;19.73;12.63;;;-1.20;99.90;;;;;;5092694;28;20048;-77
2021/12/11 00:14:30;;;;;;;17.48;12.82;;;-1.30;99.90;;;;;;5092829;28;20058;-77
2021/12/11 00:16:56;;;;;;;16.95;11.98;;;-1.30;99.90;;;;;;5076433;28;20036;-76
2021/12/11 00:19:25;;;;;;;17.92;12.18;;;-1.30;99.90;;;;;;5076498;28;20040;-76
2021/12/11 00:21:52;;;;;;;17.55;12.13;;;-1.40;99.90;;;;;;5076029;28;20044;-76
2021/12/11 00:24:26;;;;;;;16.13;12.10;;;-1.40;99.90;;;;;;5076384;28;20131;-76
2021/12/11 00:26:57;;;;;;;23.58;12.85;;;-1.40;99.90;;;;;;5076282;28;20039;-77
2021/12/11 00:29:26;;;;;;;19.50;12.57;;;-1.40;99.90;;;;;;5076002;28;20095;-76
2021/12/11 00:31:58;;;;;;;25.30;14.45;;;-1.40;99.90;;;;;;5093310;28;20437;-76
2021/12/11 00:34:24;;;;;;;25.85;14.02;;;-1.40;99.90;;;;;;5074183;28;20039;-77
2021/12/11 00:37:01;;;;;;;21.00;14.35;;;-1.40;99.90;;;;;;5092315;28;20047;-76
2021/12/11 00:39:28;;;;;;;21.20;13.45;;;-1.40;99.90;;;;;;5076004;28;20077;-76
2021/12/11 00:41:57;;;;;;;16.90;12.27;;;-1.40;99.90;;;;;;5093187;28;20048;-76
2021/12/11 00:44:52;;;;;;;15.43;11.07;;;-1.40;99.90;;;;;;5075369;28;20063;-76
2021/12/11 00:47:27;;;;;;;16.25;10.50;;;-1.40;99.90;;;;;;5075529;28;20149;-77
2021/12/11 00:49:59;;;;;;;17.98;12.20;;;-1.40;99.90;;;;;;5092290;28;20391;-76
2021/12/11 00:52:31;;;;;;;16.63;11.80;;;-1.40;99.90;;;;;;5093411;28;20047;-75
2021/12/11 00:54:58;;;;;;;15.93;10.98;;;-1.40;99.90;;;;;;5092480;28;20051;-76
2021/12/11 00:57:24;;;;;;;18.17;11.13;;;-1.40;99.90;;;;;;5075430;28;20044;-76
2021/12/11 01:00:10;;;;;;;16.88;11.48;;;-1.40;99.90;;;;;;5092471;28;20380;-76
2021/12/11 01:02:36;;;;;;;22.65;11.93;;;-1.40;99.90;;;;;;5092941;28;20484;-76
2021/12/11 01:05:07;;;;;;;16.70;12.07;;;-1.40;99.90;;;;;;5092009;28;20051;-76
2021/12/11 01:07:34;;;;;;;18.55;12.63;;;-1.30;99.90;;;;;;5075511;28;20088;-76
2021/12/11 01:10:10;;;;;;;16.85;12.50;;;-1.40;99.90;;;;;;5076390;28;20078;-71
2021/12/11 01:12:52;;;;;;;16.33;12.13;;;-1.40;99.90;;;;;;5092067;28;20036;-71
2021/12/11 01:15:34;;;;;;;16.90;11.40;;;-1.40;99.90;;;;;;5093175;28;20092;-78
2021/12/11 01:21:05;;;;;;;17.60;11.93;;;-1.40;99.90;;;;;;5097109;28;20567;-75
2021/12/11 01:26:15;;;;;;;17.60;12.35;;;-1.30;99.90;;;;;;5096749;28;20044;-77
2021/12/11 01:28:41;;;;;;;18.13;12.52;;;-1.40;99.90;;;;;;5079816;28;20091;-77
2021/12/11 01:31:11;;;;;;;19.83;13.40;;;-1.40;99.90;;;;;;5080197;28;20851;-78
2021/12/11 01:33:37;;;;;;;19.73;13.02;;;-1.40;99.90;;;;;;5114149;28;20035;-77
2021/12/11 01:36:05;;;;;;;18.77;12.27;;;-1.50;99.90;;;;;;5096856;28;20396;-77
2021/12/11 01:38:32;;;;;;;19.52;14.02;;;-1.50;99.90;;;;;;5092806;28;20130;-77
2021/12/11 01:41:02;;;;;;;19.95;12.77;;;-1.50;99.90;;;;;;5059946;28;20130;-77
2021/12/11 01:43:32;;;;;;;17.90;11.05;;;-1.50;99.90;;;;;;5080867;28;20056;-75
2021/12/11 01:46:00;;;;;;;21.67;13.68;;;-1.50;99.90;;;;;;5075754;28;20060;-77
2021/12/11 01:48:31;;;;;;;17.85;12.63;;;-1.50;99.90;;;;;;5075206;28;20411;-78
2021/12/11 01:51:10;;;;;;;19.38;11.70;;;-1.50;99.90;;;;;;5076332;28;20110;-80
2021/12/11 01:53:44;;;;;;;18.42;12.00;;;-1.60;99.90;;;;;;5064969;28;20364;-81
2021/12/11 01:56:19;;;;;;;18.67;12.18;;;-1.70;99.90;;;;;;5076405;28;20047;-80
2021/12/11 01:58:55;;;;;;;19.48;12.50;;;-1.70;99.90;;;;;;5095699;28;20040;-76
2021/12/11 02:01:44;;;;;;;20.77;13.07;;;-1.70;99.90;;;;;;5095152;28;20051;-77
2021/12/11 02:04:12;;;;;;;18.05;12.07;;;-1.80;99.90;;;;;;5078475;28;20059;-75
2021/12/11 02:06:42;;;;;;;18.23;12.40;;;-1.80;99.90;;;;;;5096187;28;20046;-77
2021/12/11 02:09:22;;;;;;;19.27;13.75;;;-1.90;99.90;;;;;;5096304;28;20526;-78
2021/12/11 02:11:51;;;;;;;22.65;13.77;;;-1.90;99.90;;;;;;5095918;28;20121;-78
2021/12/11 02:14:25;;;;;;;18.50;12.35;;;-1.90;99.90;;;;;;5095414;28;20067;-71
2021/12/11 02:16:53;;;;;;;16.95;12.65;;;-1.90;99.90;;;;;;5095366;28;20043;-77
2021/12/11 02:19:30;;;;;;;17.98;12.45;;;-2.00;99.90;;;;;;5078924;28;20062;-78
2021/12/11 02:22:07;;;;;;;20.27;14.48;;;-2.00;99.90;;;;;;5095377;28;20039;-78
2021/12/11 02:24:47;;;;;;;21.17;14.90;;;-1.90;99.90;;;;;;5078682;28;20525;-76
2021/12/11 02:27:20;;;;;;;19.65;12.40;;;-1.90;99.90;;;;;;5095526;28;20495;-76
2021/12/11 02:30:09;;;;;;;19.60;13.40;;;-1.90;99.90;;;;;;5077772;28;20062;-75
2021/12/11 02:32:43;;;;;;;19.55;13.45;;;-1.90;99.90;;;;;;5078237;28;20043;-79
2021/12/11 02:35:21;;;;;;;20.10;12.73;;;-2.00;99.90;;;;;;5058576;28;20052;-80
2021/12/11 02:37:52;;;;;;;18.63;12.70;;;-2.00;99.90;;;;;;5086374;28;20396;-79
2021/12/11 02:40:27;;;;;;;18.25;12.55;;;-2.00;99.90;;;;;;5095662;28;20123;-79
2021/12/11 02:42:55;;;;;;;18.45;12.45;;;-2.10;99.90;;;;;;5094279;28;20044;-78
2021/12/11 02:45:25;;;;;;;19.98;13.57;;;-2.10;99.90;;;;;;5078288;28;20051;-78
2021/12/11 02:48:05;;;;;;;19.42;13.25;;;-2.10;99.90;;;;;;5078193;28;20129;-78
2021/12/11 02:50:36;;;;;;;19.77;12.32;;;-2.10;99.90;;;;;;5087292;28;20404;-79
2021/12/11 02:53:10;;;;;;;17.77;12.60;;;-2.20;99.90;;;;;;5086013;28;20156;-74
2021/12/11 02:55:48;;;;;;;20.52;11.88;;;-2.20;99.90;;;;;;5095794;28;20054;-79
2021/12/11 02:58:25;;;;;;;20.95;14.15;;;-2.20;99.90;;;;;;5077322;28;20515;-79
2021/12/11 03:01:05;;;;;;;20.08;14.02;;;-2.20;99.90;;;;;;5095191;28;20484;-78
2021/12/11 03:03:37;;;;;;;23.13;14.35;;;-2.20;99.90;;;;;;5076049;28;20559;-78
2021/12/11 03:06:20;;;;;;;21.92;14.25;;;-2.30;99.90;;;;;;5077767;28;20491;-78
2021/12/11 03:08:49;;;;;;;20.42;13.90;;;-2.20;99.90;;;;;;5077969;28;20369;-78
2021/12/11 03:11:18;;;;;;;18.95;13.32;;;-2.20;99.90;;;;;;5077418;28;20039;-77
2021/12/11 03:13:54;;;;;;;22.92;14.95;;;-2.30;99.90;;;;;;5076349;28;20131;-78
2021/12/11 03:16:27;;;;;;;20.55;14.48;;;-2.30;99.90;;;;;;5094986;28;20047;-74
2021/12/11 03:18:55;;;;;;;21.90;14.45;;;-2.40;99.90;;;;;;5093930;28;20380;-75
2021/12/11 03:21:20;;;;;;;20.98;13.88;;;-2.40;99.90;;;;;;5094676;28;20043;-77
2021/12/11 03:23:48;;;;;;;20.67;13.27;;;-2.40;99.90;;;;;;5094207;28;20046;-78
2021/12/11 03:26:14;;;;;;;20.17;13.85;;;-2.30;99.90;;;;;;5094065;28;20047;-80
2021/12/11 03:28:40;;;;;;;20.95;13.48;;;-2.40;99.90;;;;;;5077432;28;20040;-78
2021/12/11 03:31:07;;;;;;;22.65;13.73;;;-2.40;99.90;;;;;;5070390;28;20527;-75
2021/12/11 03:33:42;;;;;;;21.48;14.02;;;-2.40;99.90;;;;;;5083689;28;20097;-79
2021/12/11 03:36:11;;;;;;;19.50;13.23;;;-2.40;99.90;;;;;;5094602;28;20047;-78
2021/12/11 03:38:41;;;;;;;28.75;15.00;;;-2.40;99.90;;;;;;5076395;28;20043;-78
2021/12/11 03:41:07;;;;;;;21.15;14.65;;;-2.50;99.90;;;;;;5094683;28;20079;-77
2021/12/11 03:43:34;;;;;;;20.70;13.65;;;-2.50;99.90;;;;;;5094063;28;20055;-77
2021/12/11 03:46:04;;;;;;;21.77;14.90;;;-2.50;99.90;;;;;;5093836;28;20052;-76
2021/12/11 03:48:40;;;;;;;23.92;14.43;;;-2.50;99.90;;;;;;5076613;28;20487;-77
2021/12/11 03:51:09;;;;;;;20.60;13.75;;;-2.50;99.90;;;;;;5094889;28;20137;-73
2021/12/11 03:53:35;;;;;;;23.73;15.23;;;-2.50;99.90;;;;;;5093410;28;20066;-78
2021/12/11 03:56:04;;;;;;;21.83;14.43;;;-2.50;99.90;;;;;;5094351;28;20043;-74
2021/12/11 03:58:30;;;;;;;21.98;14.52;;;-2.50;99.90;;;;;;5093493;28;20043;-74
2021/12/11 04:01:02;;;;;;;20.48;14.40;;;-2.50;99.90;;;;;;5092476;28;20086;-72
2021/12/11 04:03:31;;;;;;;23.58;15.43;;;-2.50;99.90;;;;;;5076369;28;20415;-77
2021/12/11 04:05:59;;;;;;;22.88;14.70;;;-2.60;99.90;;;;;;5077059;28;20039;-78
2021/12/11 04:08:29;;;;;;;24.13;15.05;;;-2.60;99.90;;;;;;5093106;28;20043;-77
2021/12/11 04:10:56;;;;;;;18.50;13.57;;;-2.60;99.90;;;;;;5093737;28;20044;-76
2021/12/11 04:13:22;;;;;;;20.48;14.48;;;-2.60;99.90;;;;;;5092997;28;20094;-76
2021/12/11 04:15:50;;;;;;;23.85;15.52;;;-2.60;99.90;;;;;;5093110;28;20461;-77
2021/12/11 04:18:17;;;;;;;23.92;15.15;;;-2.60;99.90;;;;;;5093541;28;20047;-77
2021/12/11 04:20:45;;;;;;;22.55;14.52;;;-2.60;99.90;;;;;;5092896;28;20043;-76
2021/12/11 04:23:12;;;;;;;21.77;13.43;;;-2.60;99.90;;;;;;5093627;28;20051;-75
2021/12/11 04:25:41;;;;;;;22.00;15.40;;;-2.70;99.90;;;;;;5095979;28;20514;-75
2021/12/11 04:28:08;;;;;;;23.67;15.75;;;-2.60;99.90;;;;;;5073256;28;20048;-77
2021/12/11 04:30:35;;;;;;;19.50;14.88;;;-2.60;99.90;;;;;;5091248;28;20096;-78
2021/12/11 04:33:01;;;;;;;23.02;15.00;;;-2.70;99.90;;;;;;5076547;28;20046;-78
2021/12/11 04:35:29;;;;;;;28.13;16.55;;;-2.70;99.90;;;;;;5075751;28;20394;-78
2021/12/11 04:37:58;;;;;;;25.35;16.13;;;-2.60;99.90;;;;;;5092906;28;20498;-79
2021/12/11 04:40:30;;;;;;;24.20;15.02;;;-2.60;99.90;;;;;;5076312;28;20075;-79
2021/12/11 04:43:03;;;;;;;24.95;15.93;;;-2.60;99.90;;;;;;5072233;28;20055;-79
2021/12/11 04:45:45;;;;;;;23.60;17.17;;;-2.70;99.90;;;;;;5089339;28;20052;-78
2021/12/11 04:51:27;;;;;;;24.98;16.10;;;-2.70;99.90;;;;;;5058198;28;20048;-75
2021/12/11 04:56:49;;;;;;;22.58;16.20;;;-2.70;99.90;;;;;;5092482;28;20053;-75
2021/12/11 05:07:34;;;;;;;25.17;14.77;;;-2.70;99.90;;;;;;5031786;28;20045;-77
2021/12/11 05:10:14;;;;;;;21.55;14.52;;;-2.70;99.90;;;;;;5085188;28;20067;-68
2021/12/11 05:12:42;;;;;;;28.83;15.68;;;-2.80;99.90;;;;;;5092697;28;20711;-69
2021/12/11 05:15:16;;;;;;;21.40;15.68;;;-2.80;99.90;;;;;;5076337;28;20051;-77
2021/12/11 05:17:43;;;;;;;22.50;15.48;;;-2.80;99.90;;;;;;5092140;28;20035;-77
2021/12/11 05:20:11;;;;;;;25.45;16.40;;;-2.80;99.90;;;;;;5093246;28;20048;-76
2021/12/11 05:22:37;;;;;;;25.67;16.05;;;-2.80;99.90;;;;;;5111225;28;20499;-69
2021/12/11 05:25:04;;;;;;;26.02;16.73;;;-2.80;99.90;;;;;;5092049;28;20055;-76
2021/12/11 05:27:31;;;;;;;28.88;16.60;;;-2.80;99.90;;;;;;5076032;28;20472;-73
2021/12/11 05:29:56;;;;;;;22.67;15.15;;;-2.80;99.90;;;;;;5075350;28;20044;-78
2021/12/11 05:32:25;;;;;;;29.77;16.83;;;-2.80;99.90;;;;;;5075146;28;20109;-78
2021/12/11 05:34:51;;;;;;;24.52;16.77;;;-2.80;99.90;;;;;;5092637;28;20122;-77
2021/12/11 05:37:17;;;;;;;28.35;17.60;;;-2.80;99.90;;;;;;5090564;28;20048;-78
2021/12/11 05:39:43;;;;;;;23.75;17.58;;;-2.80;99.90;;;;;;5091949;28;20047;-78
2021/12/11 05:42:10;;;;;;;26.27;16.88;;;-2.70;99.90;;;;;;5111110;28;20054;-78
2021/12/11 05:44:36;;;;;;;26.55;16.77;;;-2.80;99.90;;;;;;5075247;28;20058;-79
2021/12/11 05:47:04;;;;;;;24.15;16.02;;;-2.70;99.90;;;;;;5075279;28;20043;-78
2021/12/11 05:49:30;;;;;;;33.17;19.10;;;-2.80;99.90;;;;;;5083759;28;20138;-73
2021/12/11 05:51:56;;;;;;;24.55;17.00;;;-2.80;99.90;;;;;;5078677;28;20039;-78
2021/12/11 05:54:25;;;;;;;24.67;17.42;;;-2.80;99.90;;;;;;5092763;28;20380;-78
2021/12/11 05:56:55;;;;;;;25.23;16.42;;;-2.80;99.90;;;;;;5075583;28;20036;-79
2021/12/11 05:59:23;;;;;;;26.08;16.92;;;-2.80;99.90;;;;;;5091779;28;20506;-79
2021/12/11 06:01:53;;;;;;;27.10;16.23;;;-2.80;99.90;;;;;;5092765;28;20044;-80
2021/12/11 06:04:27;;;;;;;23.85;15.80;;;-2.80;99.90;;;;;;5094770;28;20426;-76
2021/12/11 06:06:54;;;;;;;25.70;15.88;;;-2.80;99.90;;;;;;5095685;28;20051;-80
2021/12/11 06:09:22;;;;;;;22.95;14.98;;;-2.90;99.90;;;;;;5079607;28;20457;-79
2021/12/11 06:11:50;;;;;;;24.95;16.08;;;-2.90;99.90;;;;;;5096375;28;20404;-78
2021/12/11 06:14:19;;;;;;;24.58;15.63;;;-2.90;99.90;;;;;;5078369;28;20089;-79
2021/12/11 06:16:47;;;;;;;23.00;15.45;;;-2.90;99.90;;;;;;5078803;28;20505;-74
2021/12/11 06:19:14;;;;;;;26.40;17.48;;;-2.90;99.90;;;;;;5094612;28;20055;-78
2021/12/11 06:21:43;;;;;;;27.30;16.60;;;-2.90;99.90;;;;;;5095243;28;20088;-74
2021/12/11 06:24:08;;;;;;;24.92;17.55;;;-2.90;99.90;;;;;;5112380;28;20165;-78
2021/12/11 06:26:34;;;;;;;24.02;16.88;;;-3.00;99.90;;;;;;5081629;28;20134;-77
2021/12/11 06:29:00;;;;;;;28.02;16.52;;;-3.00;99.90;;;;;;5063059;28;20745;-78
2021/12/11 06:31:26;;;;;;;26.08;17.55;;;-3.00;99.90;;;;;;5095681;28;20046;-78
2021/12/11 06:33:53;;;;;;;29.27;20.08;;;-3.00;99.90;;;;;;5112496;28;21817;-78
2021/12/11 06:36:23;;;;;;;25.92;18.30;;;-3.00;99.90;;;;;;5095638;28;20048;-78
2021/12/11 06:38:54;;;;;;;28.10;17.60;;;-2.90;99.90;;;;;;5078480;28;20043;-73
2021/12/11 06:41:23;;;;;;;26.52;17.00;;;-2.90;99.90;;;;;;5094963;28;20054;-75
2021/12/11 06:43:49;;;;;;;28.48;18.15;;;-2.90;99.90;;;;;;5095177;28;20058;-78
2021/12/11 06:46:15;;;;;;;26.85;18.13;;;-2.90;99.90;;;;;;5095344;28;20059;-75
2021/12/11 06:48:41;;;;;;;24.77;16.38;;;-2.90;99.90;;;;;;5093494;28;20047;-78
2021/12/11 06:51:07;;;;;;;26.33;17.13;;;-2.90;99.90;;;;;;5094998;28;20108;-79
2021/12/11 06:53:44;;;;;;;28.77;17.75;;;-3.00;99.90;;;;;;5112055;28;20044;-80
2021/12/11 06:56:11;;;;;;;25.55;17.73;;;-3.00;99.90;;;;;;5093626;28;20058;-77
2021/12/11 06:58:37;;;;;;;32.00;18.45;;;-3.00;99.90;;;;;;5095416;28;20055;-79
2021/12/11 07:01:05;;;;;;;27.60;16.27;;;-3.00;99.90;;;;;;5095289;28;20399;-78
2021/12/11 07:03:31;;;;;;;30.63;17.73;;;-2.90;99.90;;;;;;5094448;28;20047;-78
2021/12/11 07:05:57;;;;;;;25.23;16.83;;;-3.00;99.90;;;;;;5094880;28;20046;-79
2021/12/11 07:08:24;;;;;;;27.17;16.88;;;-3.00;99.90;;;;;;5095021;28;20441;-80
2021/12/11 07:10:50;;;;;;;25.13;15.93;;;-3.10;99.90;;;;;;5077890;28;20457;-72
2021/12/11 07:13:16;;;;;;;24.83;17.05;;;-3.10;99.90;;;;;;5094921;28;20071;-69
2021/12/11 07:15:42;;;;;;;26.95;17.27;;;-3.10;99.90;;;;;;5094483;28;20468;-78
2021/12/11 07:18:09;;;;;;;26.35;17.33;;;-3.10;99.90;;;;;;5093591;28;20122;-77
2021/12/11 07:20:35;;;;;;;25.25;16.75;;;-3.10;99.90;;;;;;5078028;28;20039;-77
2021/12/11 07:23:02;;;;;;;26.80;17.52;;;-3.10;99.90;;;;;;5106112;28;20039;-76
2021/12/11 07:25:48;;;;;;;29.85;18.08;;;-3.10;99.90;;;;;;5066470;28;20786;-80
2021/12/11 07:28:15;;;;;;;32.10;19.58;;;-3.20;99.90;;;;;;5077353;28;20130;-76
2021/12/11 07:30:45;;;;;;;26.33;18.02;;;-3.20;99.90;;;;;;5093358;28;20050;-76
2021/12/11 07:33:12;;;;;;;27.52;19.25;;;-3.10;99.90;;;;;;5093336;28;20043;-78
2021/12/11 07:35:40;;;;;;;28.88;18.45;;;-3.10;99.90;;;;;;5094494;28;20491;-74
2021/12/11 07:38:07;;;;;;;29.58;18.27;;;-3.10;99.90;;;;;;5076951;28;20040;-79
2021/12/11 07:40:37;;;;;;;34.58;21.65;;;-3.10;99.90;;;;;;5094535;28;20455;-79
2021/12/11 07:43:06;;;;;;;29.80;19.35;;;-3.10;99.90;;;;;;5076959;28;20080;-79
2021/12/11 07:45:34;;;;;;;26.27;17.92;;;-3.00;99.90;;;;;;5076724;28;20130;-79
2021/12/11 07:48:00;;;;;;;31.05;19.90;;;-3.00;99.90;;;;;;5092188;28;20083;-79
2021/12/11 07:50:27;;;;;;;32.88;19.13;;;-3.00;99.90;;;;;;5076832;28;20040;-73
2021/12/11 07:52:53;;;;;;;35.15;21.33;;;-3.00;99.90;;;;;;5076733;28;20441;-77
2021/12/11 07:55:19;;;;;;;30.10;20.52;;;-3.00;99.90;;;;;;5093787;28;20043;-78
2021/12/11 07:57:45;;;;;;;29.83;20.25;;;-3.00;99.90;;;;;;5112291;28;20118;-78
2021/12/11 08:00:15;;;;;;;26.38;18.38;;;-2.90;99.90;;;;;;5093301;28;20051;-75
2021/12/11 08:02:41;;;;;;;28.17;19.88;;;-2.90;99.90;;;;;;5076968;28;20089;-72
2021/12/11 08:05:08;;;;;;;27.45;18.70;;;-2.90;99.90;;;;;;5093939;28;20531;-71
2021/12/11 08:07:34;;;;;;;28.48;19.92;;;-3.00;99.90;;;;;;5111206;28;20036;-78
2021/12/11 08:10:00;;;;;;;29.92;20.38;;;-3.00;99.90;;;;;;5112205;28;20403;-77
2021/12/11 08:12:26;;;;;;;30.67;19.83;;;-2.90;99.90;;;;;;5092897;28;20039;-74
2021/12/11 08:14:52;;;;;;;30.08;18.77;;;-2.90;99.90;;;;;;5093973;28;20130;-78
2021/12/11 08:17:18;;;;;;;27.10;19.60;;;-2.90;99.90;;;;;;5093239;28;20043;-78
2021/12/11 08:19:44;;;;;;;29.80;19.65;;;-2.80;99.90;;;;;;5073689;28;20905;-74
2021/12/11 08:22:11;;;;;;;34.10;20.10;;;-2.80;99.90;;;;;;5088622;28;20114;-75
2021/12/11 08:24:38;;;;;;;28.08;17.75;;;-2.80;99.90;;;;;;5093710;28;20048;-75
2021/12/11 08:27:11;;;;;;;28.23;19.38;;;-2.80;99.90;;;;;;5091929;28;20032;-76
2021/12/11 08:29:37;;;;;;;28.27;19.92;;;-2.80;99.90;;;;;;5093548;28;20044;-74
2021/12/11 08:32:04;;;;;;;30.02;18.33;;;-2.70;99.90;;;;;;5087414;28;20127;-74
2021/12/11 08:34:31;;;;;;;29.17;18.92;;;-2.70;99.90;;;;;;5091637;28;20044;-75
2021/12/11 08:36:58;;;;;;;36.40;19.95;;;-2.70;99.90;;;;;;5084676;28;20079;-75
2021/12/11 08:39:26;;;;;;;30.92;20.73;;;-2.60;99.90;;;;;;5083886;28;20100;-75
2021/12/11 08:41:53;;;;;;;34.03;21.95;;;-2.50;99.90;;;;;;5075695;28;20408;-74
2021/12/11 08:44:20;;;;;;;30.80;21.25;;;-2.50;99.90;;;;;;5083278;28;20526;-73
2021/12/11 08:46:55;;;;;;;32.15;20.85;;;-2.50;99.90;;;;;;5091585;28;20039;-72
2021/12/11 08:49:25;;;;;;;33.83;21.23;;;-2.40;99.90;;;;;;5075334;28;20487;-74
2021/12/11 08:52:08;;;;;;;31.67;20.95;;;-2.40;99.90;;;;;;5086741;28;20043;-74
2021/12/11 08:54:34;;;;;;;;;;;-2.30;99.90;;;;;;5095617;28;20055;-74
2021/12/11 08:57:05;;;;;;;37.25;22.52;;;-2.30;99.90;;;;;;5084891;28;19920;-76
2021/12/11 08:59:32;;;;;;;34.17;22.15;;;-2.20;99.90;;;;;;5089550;28;20092;-74
2021/12/11 09:02:10;;;;;;;33.40;20.45;;;-2.20;99.90;;;;;;5073542;28;20468;-74
2021/12/11 09:05:00;;;;;;;41.95;25.27;;;-2.00;99.90;;;;;;5078904;28;20104;-74
2021/12/11 09:07:34;;;;;;;44.65;26.05;;;-1.90;99.90;;;;;;5081011;28;20130;-74
2021/12/11 09:10:06;;;;;;;37.65;23.30;;;-1.80;99.90;;;;;;5082823;28;20509;-74
2021/12/11 09:12:45;;;;;;;40.60;24.60;;;-1.70;99.90;;;;;;5086266;28;20074;-74
2021/12/11 09:15:22;;;;;;;37.85;25.23;;;-1.60;99.90;;;;;;5072388;28;20032;-73
2021/12/11 09:17:59;;;;;;;38.13;27.00;;;-1.60;99.90;;;;;;5090675;28;20074;-72
2021/12/11 09:20:37;;;;;;;38.20;25.23;;;-1.50;99.90;;;;;;5091918;28;20043;-72
2021/12/11 09:23:25;;;;;;;36.13;25.65;;;-1.40;99.90;;;;;;5091021;28;20617;-75
2021/12/11 09:25:57;;;;;;;46.08;30.00;;;-1.40;99.90;;;;;;5089486;28;20502;-76
2021/12/11 09:28:35;;;;;;;47.35;32.03;;;-1.30;99.90;;;;;;5093220;28;20113;-76
2021/12/11 09:31:06;;;;;;;45.25;29.15;;;-1.30;99.90;;;;;;5092425;28;20048;-76
2021/12/11 09:33:36;;;;;;;42.45;30.17;;;-1.10;99.90;;;;;;5075477;28;20052;-76
2021/12/11 09:36:07;;;;;;;43.88;29.85;;;-1.10;99.90;;;;;;5066274;28;20077;-76
2021/12/11 09:38:44;;;;;;;45.53;30.95;;;-1.10;99.90;;;;;;5095264;28;20047;-76
2021/12/11 09:41:24;;;;;;;48.78;31.02;;;-0.90;99.90;;;;;;5079874;28;20108;-76
2021/12/11 09:44:07;;;;;;;48.95;31.42;;;-0.80;99.90;;;;;;5096307;28;20111;-77
2021/12/11 09:46:41;;;;;;;52.33;35.58;;;-0.70;99.90;;;;;;5079173;28;20434;-77
2021/12/11 09:49:11;;;;;;;55.70;34.78;;;-0.60;99.90;;;;;;5066073;28;20039;-76
2021/12/11 09:51:42;;;;;;;56.88;37.08;;;-0.50;99.90;;;;;;5077338;28;20071;-77
2021/12/11 09:54:15;;;;;;;64.18;40.38;;;-0.40;99.90;;;;;;5096889;28;20058;-75
2021/12/11 09:56:46;;;;;;;63.50;39.30;;;-0.30;99.90;;;;;;5079173;28;20096;-75
2021/12/11 09:59:15;;;;;;;61.58;39.88;;;-0.20;99.90;;;;;;5095915;28;20040;-76
2021/12/11 10:01:46;;;;;;;56.92;37.85;;;-0.10;99.90;;;;;;5096041;28;20048;-76
2021/12/11 10:04:36;;;;;;;57.20;37.45;;;0.00;99.90;;;;;;5096320;28;20388;-77
2021/12/11 10:09:36;;;;;;;;;;;0.10;99.90;;;;;;5096534;28;20078;-78
2021/12/11 10:12:08;;;;;;;53.13;36.88;;;0.20;99.90;;;;;;5078691;28;19920;-78
2021/12/11 10:14:40;;;;;;;59.50;37.83;;;0.30;99.90;;;;;;5078814;28;20099;-78
2021/12/11 10:17:20;;;;;;;53.08;35.95;;;0.40;99.90;;;;;;5092597;28;20028;-77
2021/12/11 10:19:47;;;;;;;60.83;39.15;;;0.40;99.90;;;;;;5075672;28;20044;-74
2021/12/11 10:22:18;;;;;;;59.28;37.28;;;0.50;99.90;;;;;;5075756;28;20055;-78
2021/12/11 10:24:44;;;;;;;50.08;34.30;;;0.60;99.90;;;;;;5058204;28;20489;-78
2021/12/11 10:27:16;;;;;;;53.08;36.22;;;0.60;99.90;;;;;;5058947;28;20040;-78
2021/12/11 10:29:42;;;;;;;54.95;36.35;;;0.70;99.90;;;;;;5095840;28;20100;-78
2021/12/11 10:32:13;;;;;;;54.42;34.20;;;0.80;99.90;;;;;;5095500;28;20130;-77
2021/12/11 10:34:42;;;;;;;52.40;33.13;;;0.80;99.90;;;;;;5095945;28;20060;-80
2021/12/11 10:37:13;;;;;;;47.22;33.72;;;0.90;99.90;;;;;;5096157;28;20138;-79
2021/12/11 10:39:43;;;;;;;52.00;36.03;;;1.00;99.90;;;;;;5094770;28;20054;-80
2021/12/11 10:42:09;;;;;;;55.40;38.50;;;1.10;99.90;;;;;;5092427;28;20392;-81
2021/12/11 10:44:41;;;;;;;57.75;39.08;;;1.10;99.90;;;;;;5092250;28;20128;-79
2021/12/11 10:47:24;;;;;;;60.58;35.55;;;1.20;99.90;;;;;;5098160;28;20522;-80
2021/12/11 10:49:51;;;;;;;49.40;33.05;;;1.20;99.90;;;;;;5086095;28;20040;-75
2021/12/11 10:52:36;;;;;;;56.72;35.40;;;1.20;99.90;;;;;;5078639;28;20123;-77
2021/12/11 10:55:05;;;;;;;48.60;31.90;;;1.20;99.90;;;;;;5068909;28;20048;-75
2021/12/11 10:57:32;;;;;;;47.95;31.13;;;1.30;99.90;;;;;;5077919;28;20046;-80
2021/12/11 10:59:59;;;;;;;55.33;32.95;;;1.30;99.90;;;;;;5077182;28;20089;-83
2021/12/11 11:02:29;;;;;;;42.55;31.27;;;1.30;99.90;;;;;;5077980;28;20043;-83
2021/12/11 11:04:57;;;;;;;43.47;30.70;;;1.40;99.90;;;;;;5093550;28;20071;-85
2021/12/11 11:07:25;;;;;;;41.25;29.48;;;1.40;99.90;;;;;;5077689;28;20093;-82
2021/12/11 11:09:51;;;;;;;47.75;31.35;;;1.50;99.90;;;;;;5094557;28;20040;-80
2021/12/11 11:12:20;;;;;;;43.55;29.02;;;1.50;99.90;;;;;;5077471;28;20036;-83
2021/12/11 11:14:49;;;;;;;40.28;29.13;;;1.60;99.90;;;;;;5053786;28;20028;-76
2021/12/11 11:17:17;;;;;;;44.35;28.60;;;1.70;99.90;;;;;;5072406;28;20495;-85
2021/12/11 11:19:46;;;;;;;38.47;29.95;;;1.70;99.90;;;;;;5095463;28;20035;-86
2021/12/11 11:22:17;;;;;;;41.42;31.75;;;1.80;99.90;;;;;;5078698;28;20043;-87
2021/12/11 11:25:06;;;;;;;42.97;30.77;;;1.80;99.90;;;;;;5095436;28;20043;-79
2021/12/11 11:27:32;;;;;;;37.63;28.85;;;1.90;99.90;;;;;;5076622;28;20032;-88
2021/12/11 11:29:58;;;;;;;44.67;33.40;;;1.90;99.90;;;;;;5079278;28;20044;-89
2021/12/11 11:32:31;;;;;;;40.20;29.35;;;2.00;99.90;;;;;;5088919;28;20097;-87
2021/12/11 11:35:11;;;;;;;40.13;29.80;;;2.10;99.90;;;;;;5074273;28;20068;-89
2021/12/11 11:37:39;;;;;;;42.53;30.00;;;2.20;99.90;;;;;;5066013;28;20040;-87
2021/12/11 11:40:09;;;;;;;45.33;32.67;;;2.30;99.90;;;;;;5110374;28;20067;-89
2021/12/11 11:42:37;;;;;;;49.50;30.80;;;2.40;99.90;;;;;;5066930;28;20032;-90
2021/12/11 11:45:05;;;;;;;51.10;32.42;;;2.50;99.90;;;;;;5060931;28;20101;-89
2021/12/11 11:47:31;;;;;;;44.65;31.58;;;2.50;99.90;;;;;;5077259;28;20122;-88
2021/12/11 11:49:59;;;;;;;40.45;28.52;;;2.60;99.90;;;;;;5078730;28;20046;-82
2021/12/11 11:52:27;;;;;;;42.38;29.35;;;2.70;99.90;;;;;;5095846;28;20047;-91
2021/12/11 11:54:58;;;;;;;43.05;29.27;;;2.80;99.90;;;;;;5095156;28;20042;-91
2021/12/11 11:57:29;;;;;;;40.47;29.42;;;2.90;99.90;;;;;;5093116;28;20043;-89
2021/12/11 11:59:58;;;;;;;49.72;30.05;;;3.00;99.90;;;;;;5077357;28;20040;-81
2021/12/11 12:02:26;;;;;;;41.60;28.48;;;3.10;99.90;;;;;;5087774;28;20417;-87
2021/12/11 12:04:54;;;;;;;41.55;28.83;;;3.10;99.90;;;;;;5077915;28;20097;-80
2021/12/11 12:07:26;;;;;;;43.22;29.40;;;3.30;99.90;;;;;;5095313;28;20074;-78
2021/12/11 12:09:54;;;;;;;45.40;29.83;;;3.40;99.90;;;;;;5094114;28;20449;-75
2021/12/11 12:12:22;;;;;;;47.45;30.40;;;3.60;99.90;;;;;;5089969;28;20047;-74
2021/12/11 12:14:50;;;;;;;44.85;29.48;;;3.70;99.90;;;;;;5091970;28;20044;-78
2021/12/11 12:17:19;;;;;;;39.25;28.52;;;3.90;99.90;;;;;;5110787;28;20032;-91
2021/12/11 12:19:45;;;;;;;40.28;27.33;;;4.10;99.90;;;;;;5095211;28;20070;-88
2021/12/11 12:22:14;;;;;;;36.92;27.38;;;4.20;99.90;;;;;;5077659;28;20041;-90
2021/12/11 12:24:41;;;;;;;40.65;27.45;;;4.30;99.90;;;;;;5095091;28;20036;-79
2021/12/11 12:27:10;;;;;;;37.95;26.33;;;4.30;99.90;;;;;;5087923;28;20032;-87
2021/12/11 12:29:38;;;;;;;33.30;25.58;;;4.40;99.90;;;;;;5058313;28;20047;-81
2021/12/11 12:32:25;;;;;;;36.90;24.92;;;4.80;99.90;;;;;;5075007;28;20073;-84
2021/12/11 12:34:53;;;;;;;28.55;23.15;;;5.70;99.90;;;;;;5093666;28;20043;-81
2021/12/11 12:37:19;;;;;;;27.48;21.55;;;6.50;99.90;;;;;;5077281;28;20491;-84
2021/12/11 12:39:48;;;;;;;29.05;20.27;;;7.10;99.90;;;;;;5094073;28;20083;-88
2021/12/11 12:42:30;;;;;;;27.67;21.00;;;7.50;98.90;;;;;;5077120;28;20373;-85
2021/12/11 12:45:02;;;;;;;28.23;20.75;;;8.00;97.90;;;;;;5077371;28;20059;-79
2021/12/11 12:47:33;;;;;;;29.98;20.25;;;8.30;96.10;;;;;;5071776;28;20104;-85
2021/12/11 12:50:02;;;;;;;23.75;18.80;;;8.70;95.50;;;;;;5070288;28;20055;-86
2021/12/11 12:52:34;;;;;;;22.83;18.73;;;9.00;94.20;;;;;;5076637;28;20483;-86
2021/12/11 12:55:07;;;;;;;21.67;18.63;;;9.30;93.50;;;;;;5074283;28;20051;-81
2021/12/11 12:57:35;;;;;;;;;;;9.50;93.60;;;;;;5077790;28;20285;-88
2021/12/11 13:00:19;;;;;;;27.05;18.17;;;9.60;89.50;;;;;;5077234;28;19942;-80
2021/12/11 13:02:45;;;;;;;21.98;18.25;;;9.60;92.30;;;;;;5058155;28;20040;-78
2021/12/11 13:05:27;;;;;;;24.13;19.20;;;9.40;92.30;;;;;;5078536;28;20040;-89
2021/12/11 13:07:58;;;;;;;26.80;19.02;;;9.40;91.00;;;;;;5078199;28;20052;-87
2021/12/11 13:10:30;;;;;;;25.25;19.33;;;9.10;92.00;;;;;;5076098;28;20097;-87